Terminal Aerodrome Forecast
Issued by NWS Bismarck, ND

Home | Current Version | Previous Version | Text Only | Print | Product List | Glossary On
Versions: 1 2 3 4 5 6 7 8 9 10 11 12 13 14 15 16 17 18 19
000
FTUS43 KBIS 041428 AAB
TAFISN
TAF AMD
KISN 041428Z 0414/0512 05007KT P6SM VCSH BKN015
     FM041600 02011KT P6SM BKN025
     FM041900 03012KT P6SM SCT040
     FM050100 04011KT P6SM BKN150
     FM050600 03010KT 4SM -SHRA BR OVC050=

USA.gov is the U.S. government's official web portal to all federal, state and local government web resources and services.